Purdue University Airport Lafayette US
ICAO: KLAF
IATA: LAF
Category: Medium
Scheduled Services: No

Elevation: 606 ft
TransAlt. 18000 ft.

Airport Communications:
ASOS:127.75
ATIS:127.75
CHICAGO CNTR:123.85
CTAF:119.6
GND:121.9
TERRE HAUTE RDO:122.2
LAFAYETTE TWR:119.6
UNICOM:122.95

KLAF Zoom In..

If you have problems with the map follow the link
https://www.worldairports.se/pages/airport.php?
ICAO=KLAF

Runways:

(A) RW 05 length 4225 ft width 100 ft
---- / hdg 51

(B) RW 10 length 6600 ft width 150 ft
ILS 110.30 / hdg 100

(C) RW 23 length 4225 ft width 100 ft
---- / hdg 231

(D) RW 28 length 6600 ft width 150 ft
---- / hdg 280

Location; KLAF
Day. 06 / Time. 11.54 Zulu
* Altimeter: 30.01
* Temperature: 07° c. 44.6°f.
* Wind from: 250° Speed 04 kn.
Dewpoint: 02° c.
Visibility: 10 Statute Miles.
Clouds: Clear (automated report).

KLAF 061154Z 25004KT 10SM CLR 07/02 A3001 RMK AO2 SLP165 T00670022 10072 20056 53012


Wind From 250°
Speed 04 kn.

 
 
jpsmedia worldairports.se 2019   terms of use